createdAt,value
2018-06-24T00:02:06.073Z,5.13
2018-06-24T00:04:34.595Z,4.63
2018-06-24T00:07:03.069Z,5.80
2018-06-24T00:09:31.627Z,4.93
2018-06-24T00:12:00.109Z,5.17
2018-06-24T00:14:28.586Z,5.57
2018-06-24T00:16:57.075Z,5.57
2018-06-24T00:19:25.541Z,5.77
2018-06-24T00:21:54.082Z,4.43
2018-06-24T00:24:22.558Z,4.67
2018-06-24T00:26:51.173Z,4.77
2018-06-24T00:29:19.667Z,5.90
2018-06-24T00:31:48.157Z,5.60
2018-06-24T00:34:16.641Z,5.50
2018-06-24T00:36:45.209Z,5.67
2018-06-24T00:39:13.685Z,5.57
2018-06-24T00:41:42.193Z,6.30
2018-06-24T00:44:10.704Z,5.67
2018-06-24T00:46:39.221Z,5.20
2018-06-24T00:49:07.706Z,5.00
2018-06-24T00:51:36.237Z,5.63
2018-06-24T00:54:04.866Z,6.00
2018-06-24T00:56:33.810Z,5.93
2018-06-24T00:59:02.279Z,5.80
2018-06-24T01:01:30.789Z,4.50
2018-06-24T01:03:59.265Z,4.80
2018-06-24T01:06:27.895Z,4.47
2018-06-24T01:08:56.382Z,5.00
2018-06-24T01:11:24.892Z,5.90
2018-06-24T01:13:53.390Z,5.20
2018-06-24T01:16:21.921Z,5.10
2018-06-24T01:18:50.399Z,5.27
2018-06-24T01:21:18.917Z,5.27
2018-06-24T01:23:47.723Z,5.10
2018-06-24T01:26:16.201Z,5.43
2018-06-24T01:28:44.686Z,5.73
2018-06-24T01:31:13.211Z,4.67
2018-06-24T01:33:41.747Z,5.27
2018-06-24T01:36:10.361Z,4.73
2018-06-24T01:38:38.853Z,4.87
2018-06-24T01:41:07.369Z,5.13
2018-06-24T01:43:35.832Z,5.50
2018-06-24T01:46:04.407Z,5.60
2018-06-24T01:48:33.285Z,5.70
2018-06-24T01:51:01.780Z,5.97
2018-06-24T01:53:30.249Z,5.33
2018-06-24T01:55:58.905Z,5.57
2018-06-24T01:58:27.349Z,5.27
2018-06-24T02:00:55.819Z,5.80
2018-06-24T02:03:24.705Z,5.63
2018-06-24T02:05:53.169Z,6.23
2018-06-24T02:08:21.629Z,5.90
2018-06-24T02:10:50.113Z,5.53
2018-06-24T02:13:18.606Z,6.57
2018-06-24T02:15:47.117Z,6.30
2018-06-24T02:18:15.586Z,6.17
2018-06-24T02:20:44.203Z,6.03
2018-06-24T02:23:13.173Z,6.30
2018-06-24T02:25:41.645Z,5.97
2018-06-24T02:28:10.112Z,5.87
2018-06-24T02:30:38.607Z,6.10
2018-06-24T02:33:07.143Z,5.80
2018-06-24T02:35:35.634Z,5.83
2018-06-24T02:38:04.094Z,5.67
2018-06-24T02:40:32.665Z,6.30
2018-06-24T02:43:01.173Z,6.53
2018-06-24T02:45:29.636Z,6.33
2018-06-24T02:47:58.138Z,6.10
2018-06-24T02:50:26.732Z,6.07
2018-06-24T02:52:55.360Z,5.53
2018-06-24T02:55:23.832Z,5.73
2018-06-24T02:57:52.298Z,5.73
2018-06-24T03:00:20.877Z,6.30
2018-06-24T03:02:49.375Z,6.23
2018-06-24T03:05:17.837Z,6.47
2018-06-24T03:07:46.697Z,5.93
2018-06-24T03:10:15.181Z,6.83
2018-06-24T03:12:43.645Z,6.30
2018-06-24T03:15:12.159Z,6.43
2018-06-24T03:17:40.638Z,5.70
2018-06-24T03:20:09.109Z,5.50
2018-06-24T03:22:37.593Z,6.17
2018-06-24T03:25:06.074Z,6.10
2018-06-24T03:27:34.594Z,6.53
2018-06-24T03:30:03.089Z,5.90
2018-06-24T03:32:31.553Z,6.20
2018-06-24T03:35:00.573Z,5.97
2018-06-24T03:37:29.053Z,6.20
2018-06-24T03:39:57.669Z,5.87
2018-06-24T03:42:26.224Z,5.63
2018-06-24T03:44:54.682Z,5.97
2018-06-24T03:47:23.590Z,5.50
2018-06-24T03:49:52.045Z,6.00
2018-06-24T03:52:20.511Z,5.80
2018-06-24T03:54:49.080Z,6.10
2018-06-24T03:57:17.655Z,6.43
2018-06-24T03:59:46.158Z,6.43
2018-06-24T04:02:14.690Z,6.57
2018-06-24T04:04:43.213Z,6.50
2018-06-24T04:07:11.859Z,6.07
2018-06-24T04:09:40.449Z,6.10
2018-06-24T04:12:08.928Z,6.13
2018-06-24T04:14:37.394Z,6.10
2018-06-24T04:17:05.943Z,5.30
2018-06-24T04:19:34.462Z,7.03
2018-06-24T04:22:02.944Z,5.60
2018-06-24T04:24:31.547Z,5.57
2018-06-24T04:27:00.044Z,6.40
2018-06-24T04:29:29.540Z,5.93
2018-06-24T04:31:58.124Z,5.10
2018-06-24T04:34:26.593Z,5.60
2018-06-24T04:36:55.121Z,5.87
2018-06-24T04:39:23.621Z,6.10
2018-06-24T04:41:52.113Z,4.90
2018-06-24T04:44:20.637Z,6.33
2018-06-24T04:46:49.109Z,6.40
2018-06-24T04:49:19.626Z,5.70
2018-06-24T04:51:48.121Z,5.13
2018-06-24T04:54:16.578Z,5.40
2018-06-24T04:56:46.079Z,6.20
2018-06-24T04:59:14.878Z,5.60
2018-06-24T05:01:43.353Z,5.63
2018-06-24T05:04:12.303Z,5.73
2018-06-24T05:06:40.792Z,5.20
2018-06-24T05:09:10.954Z,5.87
2018-06-24T05:11:39.510Z,5.97
2018-06-24T05:14:07.996Z,5.60
2018-06-24T05:16:36.608Z,5.70
2018-06-24T05:19:05.173Z,6.33
2018-06-24T05:21:33.811Z,5.60
2018-06-24T05:24:02.479Z,5.43
2018-06-24T05:26:30.941Z,5.87
2018-06-24T05:28:59.433Z,5.70
2018-06-24T05:31:27.925Z,7.00
2018-06-24T05:33:56.475Z,5.60
2018-06-24T05:36:25.253Z,5.93
2018-06-24T05:38:53.739Z,5.53
2018-06-24T05:41:22.510Z,6.03
2018-06-24T05:43:51.080Z,5.37
2018-06-24T05:46:19.778Z,5.23
2018-06-24T05:48:48.276Z,5.60
2018-06-24T05:51:16.787Z,5.40
2018-06-24T05:53:45.266Z,4.33
2018-06-24T05:56:13.741Z,4.60
2018-06-24T05:58:42.197Z,5.80
2018-06-24T06:01:10.827Z,5.70
2018-06-24T06:03:39.334Z,6.63
2018-06-24T06:06:07.829Z,5.57
2018-06-24T06:08:36.362Z,6.23
2018-06-24T06:11:04.894Z,5.43
2018-06-24T06:13:33.536Z,6.70
2018-06-24T06:16:02.056Z,5.80
2018-06-24T06:18:30.563Z,4.60
2018-06-24T06:20:59.093Z,5.53
2018-06-24T06:23:27.697Z,5.00
2018-06-24T06:25:56.205Z,5.07
2018-06-24T06:28:24.719Z,4.80
2018-06-24T06:30:53.630Z,4.97
2018-06-24T06:33:22.103Z,4.20
2018-06-24T06:35:50.598Z,5.50
2018-06-24T06:38:19.226Z,4.40
2018-06-24T06:40:47.721Z,4.73
2018-06-24T06:43:16.193Z,3.80
2018-06-24T06:45:44.869Z,3.90
2018-06-24T06:48:13.233Z,4.63
2018-06-24T06:50:41.729Z,4.53
2018-06-24T06:53:10.193Z,3.47
2018-06-24T06:55:39.098Z,4.17
2018-06-24T06:58:07.590Z,4.20
2018-06-24T07:00:36.125Z,3.67
2018-06-24T07:03:05.316Z,4.40
2018-06-24T07:05:33.778Z,3.97
2018-06-24T07:08:03.620Z,4.27
2018-06-24T07:10:32.230Z,3.53
2018-06-24T07:13:02.407Z,5.93
2018-06-24T07:15:30.849Z,4.10
2018-06-24T07:17:59.557Z,3.77
2018-06-24T07:20:28.069Z,3.37
2018-06-24T07:22:56.557Z,3.30
2018-06-24T07:25:25.066Z,3.97
2018-06-24T07:27:53.543Z,4.20
2018-06-24T07:30:22.017Z,3.67
2018-06-24T07:32:50.482Z,3.90
2018-06-24T07:35:18.993Z,3.40
2018-06-24T07:37:47.699Z,4.30
2018-06-24T07:40:16.202Z,4.47
2018-06-24T07:42:44.677Z,4.03
2018-06-24T07:45:13.133Z,4.37
2018-06-24T07:47:41.641Z,4.20
2018-06-24T07:50:10.148Z,4.33
2018-06-24T07:52:39.021Z,4.00
2018-06-24T07:55:07.497Z,3.90
2018-06-24T07:57:36.020Z,4.03
2018-06-24T08:00:05.006Z,3.73
2018-06-24T08:02:33.492Z,5.60
2018-06-24T08:05:01.965Z,4.00
2018-06-24T08:07:30.538Z,4.20
2018-06-24T08:09:58.991Z,4.10
2018-06-24T08:12:27.457Z,3.70
2018-06-24T08:14:56.027Z,3.80
2018-06-24T08:17:24.551Z,4.20
2018-06-24T08:19:53.031Z,4.73
2018-06-24T08:22:21.513Z,4.00
2018-06-24T08:24:49.957Z,3.83
2018-06-24T08:27:18.448Z,3.90
2018-06-24T08:29:46.955Z,3.50
2018-06-24T08:32:15.574Z,4.20
2018-06-24T08:34:44.049Z,3.17
2018-06-24T08:37:13.049Z,4.40
2018-06-24T08:39:41.529Z,3.90
2018-06-24T08:42:10.110Z,3.63
2018-06-24T08:44:38.606Z,3.90
2018-06-24T08:47:07.155Z,3.90
2018-06-24T08:49:35.649Z,3.87
2018-06-24T08:52:04.173Z,4.27
2018-06-24T08:54:32.675Z,3.80
2018-06-24T08:57:01.157Z,3.40
2018-06-24T08:59:29.677Z,3.80
2018-06-24T09:01:58.202Z,3.80
2018-06-24T09:04:26.665Z,3.67
2018-06-24T09:06:55.185Z,4.00
2018-06-24T09:09:23.660Z,3.30
2018-06-24T09:11:52.144Z,3.80
2018-06-24T09:14:20.641Z,3.90
2018-06-24T09:16:49.137Z,3.43
2018-06-24T09:19:17.722Z,3.83
2018-06-24T09:21:46.831Z,3.43
2018-06-24T09:24:15.306Z,4.90
2018-06-24T09:26:43.857Z,3.97
2018-06-24T09:29:12.327Z,3.90
2018-06-24T09:31:40.835Z,3.80
2018-06-24T09:34:09.429Z,3.70
2018-06-24T09:36:37.919Z,3.93
2018-06-24T09:39:09.486Z,4.40
2018-06-24T09:41:37.953Z,3.97
2018-06-24T09:44:06.729Z,4.53
2018-06-24T09:46:35.938Z,4.57
2018-06-24T09:49:04.446Z,4.93
2018-06-24T09:51:33.257Z,5.40
2018-06-24T09:54:01.790Z,5.40
2018-06-24T09:56:30.350Z,6.10
2018-06-24T09:58:58.849Z,4.00
2018-06-24T10:01:27.377Z,5.63
2018-06-24T10:03:56.130Z,5.23
2018-06-24T10:06:24.745Z,4.77
2018-06-24T10:08:53.264Z,5.70
2018-06-24T10:11:21.826Z,4.10
2018-06-24T10:13:50.425Z,4.70
2018-06-24T10:16:18.897Z,5.50
2018-06-24T10:18:47.374Z,4.93
2018-06-24T10:21:15.881Z,4.33
2018-06-24T10:23:44.358Z,4.67
2018-06-24T10:26:12.801Z,4.27
2018-06-24T10:28:41.302Z,4.43
2018-06-24T10:31:09.799Z,4.77
2018-06-24T10:33:38.257Z,4.70
2018-06-24T10:36:06.870Z,4.10
2018-06-24T10:38:35.356Z,4.50
2018-06-24T10:41:03.892Z,4.60
2018-06-24T10:43:32.363Z,3.73
2018-06-24T10:46:00.846Z,4.30
2018-06-24T10:48:29.321Z,3.80
2018-06-24T10:50:57.785Z,3.80
2018-06-24T10:53:26.270Z,3.13
2018-06-24T10:55:54.811Z,3.90
2018-06-24T10:58:23.308Z,4.13
2018-06-24T11:00:51.786Z,4.37
2018-06-24T11:03:20.300Z,3.90
2018-06-24T11:05:48.814Z,4.50
2018-06-24T11:08:17.327Z,4.53
2018-06-24T11:10:45.793Z,5.27
2018-06-24T11:13:14.645Z,4.67
2018-06-24T11:15:43.109Z,4.47
2018-06-24T11:18:11.609Z,3.27
2018-06-24T11:20:40.117Z,4.63
2018-06-24T11:23:08.668Z,4.33
2018-06-24T11:25:37.166Z,4.23
2018-06-24T11:28:06.592Z,3.93
2018-06-24T11:30:35.093Z,4.23
2018-06-24T11:33:03.577Z,3.93
2018-06-24T11:35:32.099Z,4.00
2018-06-24T11:38:00.573Z,4.00
2018-06-24T11:40:29.621Z,3.70
2018-06-24T11:42:58.088Z,3.70
2018-06-24T11:45:26.553Z,4.30
2018-06-24T11:47:55.172Z,4.10
2018-06-24T11:50:23.647Z,4.57
2018-06-24T11:52:52.121Z,4.27
2018-06-24T11:55:20.641Z,5.10
2018-06-24T11:57:49.172Z,5.70
2018-06-24T12:00:17.665Z,6.20
2018-06-24T12:02:46.153Z,4.83
2018-06-24T12:05:14.669Z,5.03
2018-06-24T12:07:43.168Z,3.90
2018-06-24T12:10:11.706Z,4.60
2018-06-24T12:12:40.197Z,4.10
2018-06-24T12:15:08.710Z,4.13
2018-06-24T12:17:37.210Z,5.57
2018-06-24T12:20:05.974Z,6.10
2018-06-24T12:22:34.437Z,4.60
2018-06-24T12:25:03.040Z,5.20
2018-06-24T12:27:31.953Z,3.77
2018-06-24T12:30:00.405Z,3.73
2018-06-24T12:32:28.961Z,4.00
2018-06-24T12:34:57.443Z,4.37
2018-06-24T12:37:25.944Z,4.17
2018-06-24T12:39:54.438Z,4.80
2018-06-24T12:42:22.921Z,4.77
2018-06-24T12:44:51.446Z,4.10
2018-06-24T12:47:19.894Z,3.97
2018-06-24T12:49:48.556Z,4.27
2018-06-24T12:52:17.070Z,5.10
2018-06-24T12:54:45.622Z,5.00
2018-06-24T12:57:14.190Z,4.43
2018-06-24T12:59:42.802Z,4.20
2018-06-24T13:02:11.179Z,4.30
2018-06-24T13:04:40.353Z,4.90
2018-06-24T13:07:09.118Z,3.93
2018-06-24T13:09:37.575Z,4.70
2018-06-24T13:12:06.151Z,3.50
2018-06-24T13:14:34.650Z,3.97
2018-06-24T13:17:03.210Z,5.20
2018-06-24T13:19:31.762Z,4.77
2018-06-24T13:22:00.537Z,4.93
2018-06-24T13:24:29.030Z,4.53
2018-06-24T13:26:57.550Z,5.50
2018-06-24T13:29:26.027Z,7.13
2018-06-24T13:31:54.603Z,4.70
2018-06-24T13:34:23.091Z,5.87
2018-06-24T13:36:51.586Z,4.07
2018-06-24T13:39:20.053Z,6.47
2018-06-24T13:41:48.541Z,4.63
2018-06-24T13:44:17.451Z,6.23
2018-06-24T13:46:45.914Z,4.90
2018-06-24T13:49:14.425Z,5.47
2018-06-24T13:51:42.988Z,6.30
2018-06-24T13:54:11.720Z,4.10
2018-06-24T13:56:40.229Z,5.73
2018-06-24T13:59:08.691Z,4.77
2018-06-24T14:01:37.293Z,5.00
2018-06-24T14:04:06.411Z,5.03
2018-06-24T14:06:34.895Z,5.07
2018-06-24T14:09:03.549Z,5.27
2018-06-24T14:11:32.038Z,5.70
2018-06-24T14:14:00.608Z,5.50
2018-06-24T14:16:29.085Z,5.47
2018-06-24T14:18:57.588Z,7.53
2018-06-24T14:21:26.054Z,4.90
2018-06-24T14:23:54.901Z,5.10
2018-06-24T14:26:23.438Z,5.30
2018-06-24T14:28:51.932Z,4.77
2018-06-24T14:31:20.398Z,4.73
2018-06-24T14:33:48.862Z,5.37
2018-06-24T14:36:17.413Z,5.03
2018-06-24T14:38:45.864Z,6.10
2018-06-24T14:41:14.722Z,4.80
2018-06-24T14:43:43.258Z,5.57
2018-06-24T14:46:11.747Z,4.40
2018-06-24T14:48:40.232Z,5.20
2018-06-24T14:51:08.693Z,5.40
2018-06-24T14:53:37.169Z,5.10
2018-06-24T14:56:05.725Z,6.60
2018-06-24T14:58:34.201Z,5.80
2018-06-24T15:01:02.824Z,5.77
2018-06-24T15:03:31.433Z,6.40
2018-06-24T15:05:59.950Z,5.43
2018-06-24T15:08:28.421Z,6.63
2018-06-24T15:10:57.122Z,7.03
2018-06-24T15:13:25.742Z,5.90
2018-06-24T15:15:54.227Z,6.27
2018-06-24T15:18:23.017Z,5.80
2018-06-24T15:20:51.533Z,4.77
2018-06-24T15:23:20.052Z,6.37
2018-06-24T15:25:48.581Z,6.80
2018-06-24T15:28:17.070Z,6.77
2018-06-24T15:30:46.412Z,5.10
2018-06-24T15:33:15.345Z,4.80
2018-06-24T15:35:43.809Z,6.00
2018-06-24T15:38:12.313Z,7.93
2018-06-24T15:40:40.998Z,7.27
2018-06-24T15:43:09.505Z,4.67
2018-06-24T15:45:38.033Z,3.47
2018-06-24T15:48:06.524Z,7.03
2018-06-24T15:50:35.170Z,4.43
2018-06-24T15:53:03.664Z,3.60
2018-06-24T15:55:32.329Z,3.97
2018-06-24T15:58:00.889Z,3.10
2018-06-24T16:00:29.379Z,3.53
2018-06-24T16:02:57.861Z,2.90
2018-06-24T16:05:26.872Z,2.53
2018-06-24T16:07:56.433Z,2.63
2018-06-24T16:10:24.903Z,2.90
2018-06-24T16:12:53.465Z,3.90
2018-06-24T16:15:21.932Z,2.53
2018-06-24T16:17:50.405Z,2.80
2018-06-24T16:20:19.035Z,1.80
2018-06-24T16:22:47.690Z,1.80
2018-06-24T16:25:16.193Z,1.50
2018-06-24T16:27:44.770Z,1.10
2018-06-24T16:30:13.295Z,1.30
2018-06-24T16:32:41.890Z,1.33
2018-06-24T16:35:10.422Z,1.37
2018-06-24T16:37:38.898Z,1.37
2018-06-24T16:40:07.490Z,1.47
2018-06-24T16:42:35.991Z,1.67
2018-06-24T16:45:04.637Z,1.43
2018-06-24T16:47:33.128Z,1.40
2018-06-24T16:50:01.697Z,1.10
2018-06-24T16:52:30.114Z,1.20
2018-06-24T16:54:58.690Z,1.30
2018-06-24T16:57:27.174Z,1.27
2018-06-24T16:59:56.117Z,1.30
2018-06-24T17:02:24.595Z,1.60
2018-06-24T17:04:53.072Z,1.73
2018-06-24T17:07:21.591Z,1.33
2018-06-24T17:09:50.078Z,1.67
2018-06-24T17:12:18.567Z,2.37
2018-06-24T17:14:47.042Z,2.03
2018-06-24T17:17:15.509Z,1.50
2018-06-24T17:19:44.084Z,1.47
2018-06-24T17:22:12.530Z,1.97
2018-06-24T17:24:41.060Z,1.70
2018-06-24T17:27:09.598Z,1.57
2018-06-24T17:29:38.235Z,1.57
2018-06-24T17:32:06.820Z,1.13
2018-06-24T17:34:35.774Z,1.53
2018-06-24T17:37:04.283Z,2.00
2018-06-24T17:39:33.186Z,2.60
2018-06-24T17:42:01.277Z,2.33
2018-06-24T17:44:29.789Z,2.63
2018-06-24T17:46:58.345Z,1.63
2018-06-24T17:49:26.972Z,2.73
2018-06-24T17:51:55.529Z,2.33
2018-06-24T17:54:24.078Z,4.77
2018-06-24T17:56:52.714Z,2.50
2018-06-24T17:59:21.262Z,2.50
2018-06-24T18:01:49.765Z,2.40
2018-06-24T18:04:18.766Z,3.30
2018-06-24T18:06:47.244Z,2.80
2018-06-24T18:09:15.759Z,2.57
2018-06-24T18:11:44.449Z,2.37
2018-06-24T18:14:12.930Z,2.97
2018-06-24T18:16:41.426Z,3.20
2018-06-24T18:19:09.904Z,2.93
2018-06-24T18:21:38.493Z,3.07
2018-06-24T18:24:06.968Z,3.30
2018-06-24T18:26:35.530Z,4.40
2018-06-24T18:29:04.144Z,4.23
2018-06-24T18:31:32.650Z,4.37
2018-06-24T18:34:01.383Z,4.27
2018-06-24T18:36:29.968Z,4.87
2018-06-24T18:38:58.471Z,5.87
2018-06-24T18:41:26.968Z,4.93
2018-06-24T18:43:55.476Z,4.17
2018-06-24T18:46:24.197Z,5.13
2018-06-24T18:48:52.674Z,3.73
2018-06-24T18:51:21.263Z,4.70
2018-06-24T18:53:49.782Z,4.90
2018-06-24T18:56:18.393Z,5.17
2018-06-24T18:58:46.910Z,4.40
2018-06-24T19:01:15.420Z,5.20
2018-06-24T19:03:44.053Z,5.50
2018-06-24T19:06:12.569Z,5.30
2018-06-24T19:08:41.205Z,5.80
2018-06-24T19:11:10.054Z,5.27
2018-06-24T19:13:38.673Z,5.10
2018-06-24T19:16:07.253Z,5.60
2018-06-24T19:18:36.303Z,4.40
2018-06-24T19:21:04.919Z,4.93
2018-06-24T19:23:33.579Z,6.20
2018-06-24T19:26:02.654Z,5.70
2018-06-24T19:28:31.226Z,5.90
2018-06-24T19:30:59.799Z,7.57
2018-06-24T19:33:28.323Z,7.20
2018-06-24T19:35:56.806Z,6.43
2018-06-24T19:38:25.319Z,7.43
2018-06-24T19:40:53.802Z,6.80
2018-06-24T19:43:22.337Z,6.17
2018-06-24T19:45:50.881Z,5.93
2018-06-24T19:48:19.403Z,5.97
2018-06-24T19:50:47.924Z,6.27
2018-06-24T19:53:16.403Z,6.80
2018-06-24T19:55:44.885Z,6.43
2018-06-24T19:58:13.454Z,6.50
2018-06-24T20:00:41.950Z,7.30
2018-06-24T20:03:10.988Z,6.63
2018-06-24T20:05:39.577Z,5.80
2018-06-24T20:08:08.436Z,6.03
2018-06-24T20:10:36.903Z,6.97
2018-06-24T20:13:05.457Z,7.23
2018-06-24T20:15:33.961Z,6.30
2018-06-24T20:18:02.417Z,5.90
2018-06-24T20:20:30.893Z,7.30
2018-06-24T20:22:59.375Z,6.47
2018-06-24T20:25:27.905Z,8.10
2018-06-24T20:27:57.429Z,7.40
2018-06-24T20:30:25.932Z,6.90
2018-06-24T20:32:54.462Z,6.77
2018-06-24T20:35:22.946Z,7.50
2018-06-24T20:37:51.432Z,6.20
2018-06-24T20:40:19.901Z,6.77
2018-06-24T20:42:48.817Z,7.50
2018-06-24T20:45:17.294Z,7.57
2018-06-24T20:47:45.768Z,7.70
2018-06-24T20:50:14.434Z,7.77
2018-06-24T20:52:42.969Z,7.63
2018-06-24T20:55:11.479Z,7.30
2018-06-24T20:57:40.351Z,7.57
2018-06-24T21:00:09.098Z,8.47
2018-06-24T21:02:37.562Z,7.30
2018-06-24T21:05:06.546Z,8.20
2018-06-24T21:07:35.021Z,7.70
2018-06-24T21:10:03.601Z,7.07
2018-06-24T21:12:32.174Z,7.67
2018-06-24T21:15:00.966Z,7.60
2018-06-24T21:17:29.454Z,7.20
2018-06-24T21:19:57.921Z,7.27
2018-06-24T21:22:26.730Z,7.50
2018-06-24T21:24:55.223Z,8.33
2018-06-24T21:27:23.729Z,8.33
2018-06-24T21:29:52.219Z,7.90
2018-06-24T21:32:20.694Z,6.93
2018-06-24T21:34:49.205Z,6.63
2018-06-24T21:37:17.720Z,7.13
2018-06-24T21:39:46.206Z,5.50
2018-06-24T21:42:14.717Z,5.13
2018-06-24T21:44:43.184Z,6.20
2018-06-24T21:47:12.188Z,5.00
2018-06-24T21:49:40.674Z,5.37
2018-06-24T21:52:09.154Z,5.07
2018-06-24T21:54:37.692Z,5.33
2018-06-24T21:57:06.184Z,4.93
2018-06-24T21:59:34.820Z,5.20
2018-06-24T22:02:03.341Z,4.77
2018-06-24T22:04:31.857Z,4.60
2018-06-24T22:07:00.342Z,4.60
2018-06-24T22:09:28.814Z,4.93
2018-06-24T22:11:57.317Z,4.50
2018-06-24T22:14:25.810Z,4.10
2018-06-24T22:16:54.440Z,4.27
2018-06-24T22:19:22.929Z,4.60
2018-06-24T22:21:51.475Z,5.07
2018-06-24T22:24:19.921Z,4.70
2018-06-24T22:26:48.393Z,5.27
2018-06-24T22:29:17.014Z,5.23
2018-06-24T22:31:45.650Z,5.17
2018-06-24T22:34:14.149Z,4.27
2018-06-24T22:36:42.617Z,2.57
2018-06-24T22:39:12.306Z,5.77
2018-06-24T22:41:41.442Z,5.77
2018-06-24T22:44:09.910Z,5.50
2018-06-24T22:46:38.382Z,6.60
2018-06-24T22:49:07.294Z,6.77
2018-06-24T22:51:36.206Z,7.30
2018-06-24T22:54:05.242Z,6.57
2018-06-24T22:56:33.766Z,7.47
2018-06-24T22:59:13.506Z,7.40
2018-06-24T23:01:41.993Z,6.57
2018-06-24T23:04:10.494Z,8.07
2018-06-24T23:06:38.989Z,6.80
2018-06-24T23:09:08.833Z,7.90
2018-06-24T23:11:37.573Z,8.63
2018-06-24T23:14:06.168Z,8.70
2018-06-24T23:16:34.731Z,8.13
2018-06-24T23:19:03.227Z,9.20
2018-06-24T23:21:31.811Z,8.50
2018-06-24T23:24:00.337Z,8.90
2018-06-24T23:26:28.834Z,8.60
2018-06-24T23:28:58.098Z,9.30
2018-06-24T23:31:26.777Z,8.43
2018-06-24T23:33:55.518Z,9.17
2018-06-24T23:36:24.021Z,9.57
2018-06-24T23:38:52.505Z,9.23
2018-06-24T23:41:20.986Z,9.40
2018-06-24T23:43:49.461Z,10.00
2018-06-24T23:46:18.067Z,10.50
2018-06-24T23:48:46.576Z,10.30
2018-06-24T23:51:15.113Z,9.90
2018-06-24T23:53:43.961Z,11.33
2018-06-24T23:56:12.486Z,11.50
2018-06-24T23:58:40.963Z,9.73
